If you wish to contribute or participate in the discussions about articles you are invited to join SKYbrary as a registered user

 Actions

Devi Ahilyabai Holkar Airport

From SKYbrary Wiki

VAID
Airport
ICAO: VAID
Summary
Name Devi Ahilyabai Holkar Airport
Region Asia and Pacific
Territory India IN.gif
Location Indore, Madhya Pradesh
Serving
Coordinates 22° 43' 20.14" N, 75° 48' 18.00" E
Runways
Designator Length Width Surface ROPS
7/25 2280 m7,480.315 ft
45 m147.638 ft
COM yes/yes


METAR
Observation VAID 150600Z 25011KT 6000 SCT025 29/20 Q1006 NOSIG
Station Indore
Date/Time 15 July 2019 06:00:00
Wind direction 250°
Wind speed 11 kts
Lowest cloud amount scattered clouds
Temperature 29°C
Dew point 20°C
Humidity 58%
QNH 1006 hPa
Weather condition n/a

WX
Tag(s) Cumulonimbus

Devi Ahilyabai Holkar Airport

ICAO: VAID IATA: IDR

Description

Devi Ahilyabai Holkar Airport is a public airport located 8 km4.32 nm
8,000 m
26,246.719 ft
west of Indore, a city in Madhya Pradesh, India.

Climatology

Humid “subtropical” climate (Köppen climate classification Cfa) - characterized by hot, humid summers and cool winters. Most precipitation occurs during the monsoon season between late June and late September. Most summer rainfall occurs during thunderstorms.

Maps

Terrain

Loading map...

Airport Layout

Loading map...


Accidents & Serious Incidents at or in vicinity of VAID

None on SKYbrary